Latest Weather Observations for Truscott

IDD60801

Issued at 7:31 pm CST Saturday 1 October 2016 (issued every 30 minutes, with the page automatically refreshed every 10 minutes)

About weather observations | Map of weather stations | Latest weather observations for NT | Other Formats
Station Details ID: 001020 Name: TRUSCOTT Lat: -14.09 Lon: 126.39 Height: 51.0 m
Data from the previous 72 hours. | See also: Recent months at Truscott
Date/Time
CST
Temp
°C
App
Temp
°C
Dew
Point
°C
Rel
Hum
%
Delta-T
°C
Wind Press
QNH
hPa
Press
MSL
hPa
Rain since
9am
mm
Dir  Spd
km/h
Gust
km/h
Spd
kts
Gust
kts
01/07:30pm 29.7 31.5 21.9 63 5.3 WNW 15 20 8 11 1008.9 1008.5 0.0
01/07:00pm 30.5 31.6 20.4 54 6.7 W 15 24 8 13 1008.6 1008.2 0.0
01/06:30pm 31.3 31.0 18.3 46 8.4 W 17 24 9 13 1008.2 1007.8 0.0
01/06:00pm 32.1 32.1 19.0 45 8.6 W 17 26 9 14 1007.8 1007.4 0.0
01/05:30pm 32.4 32.0 18.9 44 8.8 W 19 28 10 15 1007.6 1007.2 0.0
01/05:00pm 32.6 32.3 19.5 46 8.6 W 20 30 11 16 1007.6 1007.2 0.0
01/04:30pm 32.7 33.1 20.6 49 8.1 W 19 26 10 14 1007.8 1007.4 0.0
01/04:00pm 32.7 33.6 21.9 53 7.4 W 20 32 11 17 1007.9 1007.5 0.0
01/03:30pm 33.4 33.9 20.9 48 8.4 W 19 28 10 15 1008.2 1007.8 0.0
01/03:00pm 32.6 33.1 20.8 49 7.9 WNW 19 30 10 16 1008.6 1008.2 0.0
01/02:30pm 33.1 33.7 21.3 50 8.0 WNW 20 28 11 15 1008.8 1008.4 0.0
01/02:00pm 33.3 34.2 21.5 50 8.0 WNW 19 28 10 15 1009.1 1008.7 0.0
01/01:30pm 32.8 34.6 22.6 55 7.0 WNW 17 26 9 14 1009.4 1009.0 0.0
01/01:00pm 32.6 34.7 22.4 55 7.0 WNW 15 24 8 13 1009.9 1009.5 0.0
01/12:30pm 32.0 33.7 22.4 57 6.6 WNW 17 24 9 13 1010.4 1010.0 0.0
01/12:00pm 32.0 33.9 22.1 55 6.7 WNW 15 22 8 12 1010.9 1010.5 0.0
01/11:30am 31.7 33.6 22.1 56 6.5 WNW 15 28 8 15 1011.1 1010.7 0.0
01/11:00am 31.5 34.2 22.2 57 6.3 W 11 19 6 10 1011.4 1011.0 0.0
01/10:30am 31.5 34.6 22.8 60 6.0 WNW 11 20 6 11 1011.4 1011.0 0.0
01/10:00am 30.9 33.1 21.9 58 6.1 WNW 13 17 7 9 1011.4 1011.0 0.0
01/09:30am 29.9 32.2 22.1 63 5.3 WNW 13 20 7 11 1011.4 1011.0 0.0
01/09:00am 29.4 32.4 22.6 67 4.6 WNW 11 17 6 9 1011.4 1011.1 0.0
01/08:30am 28.6 31.6 23.3 73 3.6 WNW 13 19 7 10 1011.1 1010.8 0.0
01/08:00am 28.6 32.2 23.7 75 3.4 W 11 17 6 9 1010.8 1010.5 0.0
01/07:30am 27.2 31.9 23.9 82 2.3 WNW 6 9 3 5 1010.5 1010.2 0.0
01/07:00am 26.7 31.3 23.8 84 2.0 WNW 6 9 3 5 1009.9 1009.6 0.0
01/06:30am 27.2 31.8 24.1 83 2.1 W 7 13 4 7 1009.7 1009.4 0.0
01/06:00am 27.2 31.0 24.1 83 2.1 W 11 13 6 7 1009.3 1008.9 0.0
01/05:30am 27.2 31.7 23.9 82 2.3 W 7 9 4 5 1009.2 1008.8 0.0
01/05:00am 27.0 31.5 23.7 82 2.3 W 6 9 3 5 1008.9 1008.5 0.0
01/04:30am 27.2 31.8 24.1 83 2.1 W 7 11 4 6 1008.5 1008.1 0.0
01/04:00am 27.4 31.8 23.8 81 2.5 W 7 11 4 6 1008.6 1008.2 0.0
01/03:30am 27.5 31.6 23.9 81 2.5 W 9 13 5 7 1008.5 1008.1 0.0
01/03:00am 27.6 31.7 24.0 81 2.5 W 9 15 5 8 1008.6 1008.2 0.0
01/02:30am 27.6 31.7 24.0 81 2.5 WNW 9 11 5 6 1008.7 1008.3 0.0
01/02:00am 27.5 31.6 23.9 81 2.5 WNW 9 11 5 6 1008.8 1008.4 0.0
01/01:30am 27.6 32.0 23.8 80 2.6 WNW 7 11 4 6 1008.9 1008.5 0.0
01/01:00am 27.8 31.9 24.0 80 2.6 WNW 9 15 5 8 1009.2 1008.8 0.0
01/12:30am 27.8 31.9 24.0 80 2.6 W 9 13 5 7 1009.6 1009.3 0.0
01/12:00am 28.0 31.8 24.0 79 2.8 W 11 15 6 8 1009.7 1009.4 0.0
 
Date/Time
CST
Temp
°C
App
Temp
°C
Dew
Point
°C
Rel
Hum
%
Delta-T
°C
Wind Press
QNH
hPa
Press
MSL
hPa
Rain since
9am
mm
Dir  Spd
km/h
Gust
km/h
Spd
kts
Gust
kts
30/11:30pm 28.0 32.1 24.0 79 2.8 WNW 9 15 5 8 1009.9 1009.6 0.0
30/11:00pm 28.1 32.2 23.9 78 2.9 WNW 9 13 5 7 1009.7 1009.4 0.0
30/10:30pm 28.2 31.6 24.0 78 2.9 WNW 13 17 7 9 1009.5 1009.2 0.0
30/10:00pm 28.3 32.1 24.1 78 2.9 WNW 11 17 6 9 1009.2 1008.8 0.0
30/09:30pm 28.3 32.0 23.9 77 3.0 WNW 11 17 6 9 1009.1 1008.7 0.0
30/09:00pm 28.3 32.6 23.7 76 3.2 NW 7 13 4 7 1008.8 1008.4 0.0
30/08:30pm 28.5 32.6 23.9 76 3.2 NW 9 15 5 8 1008.2 1007.8 0.0
30/08:00pm 28.7 32.1 23.4 73 3.6 NNW 11 15 6 8 1007.8 1007.4 0.0
30/07:30pm 29.0 32.3 23.2 71 4.0 NW 11 19 6 10 1007.5 1007.1 0.0
30/07:00pm 29.2 32.1 23.9 73 3.7 NW 15 20 8 11 1007.1 1006.7 0.0
30/06:30pm 30.0 32.5 23.2 67 4.7 NW 15 20 8 11 1006.7 1006.3 0.0
30/06:00pm 30.3 32.3 23.0 65 5.0 NNW 17 28 9 15 1006.4 1006.0 0.0
30/05:30pm 30.6 32.0 21.9 59 5.9 NNW 17 28 9 15 1005.9 1005.5 0.0
30/05:00pm 31.0 31.3 21.5 57 6.4 NNW 22 28 12 15 1005.7 1005.3 0.0
30/04:30pm 31.7 32.8 22.4 58 6.4 NW 20 30 11 16 1005.7 1005.3 0.0
30/04:00pm 32.3 33.2 21.5 53 7.3 NW 19 30 10 16 1005.7 1005.3 0.0
30/03:30pm 31.7 32.1 21.8 55 6.7 NNW 22 33 12 18 1006.0 1005.6 0.0
30/03:00pm 32.1 33.1 22.8 58 6.4 NNW 22 32 12 17 1006.3 1005.9 0.0
30/02:30pm 32.4 34.2 23.6 59 6.1 NNW 20 30 11 16 1006.7 1006.3 0.0
30/02:00pm 32.3 34.4 23.8 61 5.9 NNW 19 28 10 15 1007.0 1006.6 0.0
30/01:30pm 32.3 33.6 22.4 56 6.8 N 19 26 10 14 1007.4 1007.0 0.0
30/01:00pm 33.9 35.3 21.0 47 8.7 WNW 15 22 8 12 1007.8 1007.4 0.0
30/12:30pm 33.4 35.0 22.2 52 7.7 WNW 17 26 9 14 1008.3 1007.9 0.0
30/12:00pm 33.5 33.8 19.6 44 9.2 WNW 17 24 9 13 1008.9 1008.5 0.0
30/11:30am 32.9 34.4 22.0 52 7.4 NW 17 26 9 14 1009.1 1008.7 0.0
30/11:00am 32.3 34.0 22.4 56 6.8 W 17 26 9 14 1009.3 1008.9 0.0
30/10:30am 31.4 33.9 23.2 61 5.7 WSW 15 22 8 12 1009.5 1009.2 0.0
30/10:00am 30.8 33.1 23.5 65 5.0 W 17 24 9 13 1009.8 1009.5 0.0
30/09:30am 30.1 33.5 24.0 70 4.2 W 13 20 7 11 1009.8 1009.5 0.0
30/09:00am 29.0 31.9 23.9 74 3.5 W 15 20 8 11 1009.8 1009.5 0.0
30/08:30am 28.7 31.9 24.3 77 3.1 W 15 20 8 11 1009.5 1009.2 0.0
30/08:00am 28.3 32.2 24.3 79 2.8 W 11 15 6 8 1009.1 1008.7 0.0
30/07:30am 28.3 32.7 24.5 80 2.7 W 9 13 5 7 1008.9 1008.5 0.0
30/07:00am 27.7 31.8 24.5 83 2.2 WNW 11 17 6 9 1008.7 1008.3 0.0
30/06:30am 27.7 32.1 24.5 83 2.2 WNW 9 15 5 8 1008.6 1008.2 0.0
30/06:00am 27.8 32.6 24.4 82 2.4 WNW 7 11 4 6 1008.3 1007.9 0.0
30/05:30am 28.0 32.5 24.6 82 2.4 WNW 9 13 5 7 1008.1 1007.7 0.0
30/05:00am 28.0 33.0 24.8 83 2.2 WNW 7 9 4 5 1008.1 1007.7 0.0
30/04:32am 27.8 31.9 24.6 83 2.2 WNW 11 17 6 9 1007.8 1007.4 0.0
30/04:30am 27.9 32.1 24.7 83 2.2 W 11 17 6 9 1007.8 1007.4 0.0
30/04:11am 27.9 32.7 25.1 85 2.0 W 9 15 5 8 1007.9 1007.5 0.0
30/04:00am 27.9 32.7 25.1 85 2.0 WNW 9 13 5 7 1008.0 1007.6 0.0
30/03:30am 27.8 32.2 25.0 85 2.0 WNW 11 15 6 8 1007.9 1007.5 0.0
30/03:00am 27.9 32.7 25.1 85 2.0 WNW 9 15 5 8 1008.3 1007.9 0.0
30/02:30am 28.0 32.0 25.0 84 2.1 WNW 13 17 7 9 1008.5 1008.1 0.0
30/02:00am 27.9 32.6 24.9 84 2.1 WNW 9 13 5 7 1008.5 1008.1 0.0
30/01:30am 28.1 33.0 25.3 85 2.0 WNW 9 13 5 7 1008.7 1008.3 0.0
30/01:00am 28.1 33.2 24.9 83 2.2 NW 7 11 4 6 1009.0 1008.6 0.0
30/12:30am 28.4 33.3 25.2 83 2.3 WNW 9 11 5 6 1009.4 1009.1 0.0
30/12:00am 28.3 33.7 25.5 85 2.0 NW 7 13 4 7 1009.6 1009.3 0.0
 
Date/Time
CST
Temp
°C
App
Temp
°C
Dew
Point
°C
Rel
Hum
%
Delta-T
°C
Wind Press
QNH
hPa
Press
MSL
hPa
Rain since
9am
mm
Dir  Spd
km/h
Gust
km/h
Spd
kts
Gust
kts
29/11:30pm 28.3 33.2 25.3 84 2.1 WNW 9 15 5 8 1009.6 1009.3 0.0
29/11:00pm 28.3 33.4 25.5 85 2.0 NNW 9 13 5 7 1009.7 1009.4 0.0
29/10:30pm 28.2 33.6 25.4 85 2.0 NW 7 13 4 7 1009.5 1009.2 0.0
29/10:00pm 28.3 33.7 25.5 85 2.0 NNW 7 11 4 6 1009.4 1009.1 0.0
29/09:30pm 28.3 33.6 25.3 84 2.1 NNW 7 9 4 5 1009.0 1008.6 0.0
29/09:00pm 28.5 33.6 25.5 84 2.1 NW 9 13 5 7 1008.8 1008.4 0.0
29/08:30pm 28.6 33.7 25.6 84 2.1 NNW 9 13 5 7 1008.3 1007.9 0.0
29/08:00pm 28.7 33.6 25.3 82 2.4 NNW 9 13 5 7 1007.8 1007.4 0.0
29/07:30pm 28.8 33.4 25.4 82 2.4 NW 11 17 6 9 1007.2 1006.8 0.0
29/07:00pm 29.0 32.2 25.0 79 2.8 NNW 17 26 9 14 1006.5 1006.1 0.0
29/06:30pm 29.3 32.7 25.3 79 2.8 NW 17 24 9 13 1006.0 1005.6 0.0
29/06:00pm 30.2 33.8 25.0 73 3.7 NW 15 20 8 11 1005.6 1005.2 0.0
29/05:30pm 30.6 33.0 24.3 69 4.4 NW 19 28 10 15 1005.5 1005.1 0.0
29/05:00pm 30.6 32.7 23.8 67 4.7 NNW 19 28 10 15 1005.5 1005.1 0.0
29/04:30pm 31.4 33.9 24.5 67 4.9 NNW 19 28 10 15 1005.5 1005.1 0.0
29/04:00pm 31.6 33.6 24.0 64 5.3 NNW 20 32 11 17 1005.7 1005.3 0.0
29/03:30pm 32.5 35.0 24.8 64 5.4 NNW 20 30 11 16 1005.7 1005.3 0.0
29/03:00pm 32.4 34.4 23.9 61 5.9 NNW 20 28 11 15 1006.1 1005.7 0.0
29/02:30pm 33.0 33.7 21.5 50 7.8 NNW 20 26 11 14 1006.4 1006.0 0.0
29/02:00pm 33.4 34.6 22.5 52 7.5 N 20 28 11 15 1006.8 1006.4 0.0
29/01:30pm 34.6 34.4 19.4 40 10.1 NNW 19 28 10 15 1007.1 1006.7 0.0
29/01:00pm 34.7 35.3 21.0 44 9.3 N 19 28 10 15 1007.7 1007.3 0.0
29/12:30pm 34.7 34.2 18.7 38 10.5 N 19 28 10 15 1008.3 1007.9 0.0
29/12:00pm 36.6 35.4 12.8 24 14.5 S 11 17 6 9 1008.9 1008.5 0.0
29/11:30am 35.9 35.8 13.4 26 13.8 N 6 13 3 7 1009.3 1008.9 0.0
29/11:00am 35.8 35.5 14.4 27 13.3 SSW 9 17 5 9 1009.7 1009.4 0.0
29/10:30am 34.1 35.1 18.6 40 10.1 S 11 17 6 9 1010.1 1009.8 -
29/10:00am 32.5 34.1 20.7 49 7.9 S 13 20 7 11 1010.3 1010.0 -
29/09:30am 32.0 33.7 20.9 52 7.5 S 13 20 7 11 1010.4 1010.1 -
29/09:00am 30.3 33.5 23.0 65 5.0 WSW 11 15 6 8 1010.4 1010.1 -
29/08:30am 29.4 33.8 24.5 75 3.4 WSW 9 15 5 8 1010.3 1010.0 -
29/08:00am 27.9 33.2 24.9 84 2.1 W 6 9 3 5 1010.0 1009.7 -
29/07:30am 27.2 32.3 25.0 88 1.5 W 7 11 4 6 1009.6 1009.3 -
29/07:00am 26.5 31.8 24.9 91 1.1 WSW 6 9 3 5 1009.3 1008.9 -
29/06:30am 25.7 30.4 23.9 90 1.2 WNW 6 7 3 4 1008.7 1008.3 -
29/06:00am 26.1 31.9 24.5 91 1.1 WNW 2 7 1 4 1008.5 1008.1 -
29/05:30am 25.8 31.5 23.8 89 1.4 CALM 0 0 0 0 1008.3 1007.9 -
29/05:00am 25.9 31.5 23.6 87 1.6 CALM 0 0 0 0 1008.2 1007.8 -
29/04:30am 26.5 32.3 24.0 86 1.7 CALM 0 0 0 0 1008.0 1007.6 0.0
29/04:00am 26.6 32.6 24.3 87 1.6 CALM 0 0 0 0 1008.1 1007.7 -
29/03:30am 25.5 30.0 23.6 89 1.3 N 6 7 3 4 1008.1 1007.7 -
29/03:00am 25.4 30.8 23.3 88 1.4 CALM 0 0 0 0 1008.1 1007.7 -
29/02:30am 25.9 31.3 23.2 85 1.8 CALM 0 0 0 0 1008.4 1008.0 -
29/02:00am 25.9 31.2 23.0 84 2.0 CALM 0 0 0 0 1008.7 1008.3 -
29/01:30am 26.0 31.2 22.9 83 2.1 CALM 0 0 0 0 1009.2 1008.8 -
29/01:00am 26.5 31.8 23.0 81 2.4 CALM 0 4 0 2 1009.5 1009.2 -
29/12:30am 26.5 31.2 22.6 79 2.6 W 2 6 1 3 1009.8 1009.5 -
29/12:00am 26.4 30.9 21.6 75 3.2 CALM 0 0 0 0 1010.0 1009.7 -
 
Date/Time
CST
Temp
°C
App
Temp
°C
Dew
Point
°C
Rel
Hum
%
Delta-T
°C
Wind Press
QNH
hPa
Press
MSL
hPa
Rain since
9am
mm
Dir  Spd
km/h
Gust
km/h
Spd
kts
Gust
kts
28/11:30pm 27.5 31.5 22.0 72 3.7 W 4 7 2 4 1010.2 1009.9 -
28/11:00pm 27.8 31.2 21.6 69 4.2 WSW 6 7 3 4 1010.1 1009.8 -
28/10:30pm 28.2 31.6 21.7 68 4.4 W 6 7 3 4 1009.9 1009.6 0.0
28/10:00pm 28.7 31.9 22.4 68 4.3 SW 9 11 5 6 1009.8 1009.5 -
28/09:30pm 28.9 32.8 22.9 70 4.1 SW 7 9 4 5 1009.5 1009.2 -

Other Formats:

Comma delimited format used in spreadsheet applications
http://www.bom.gov.au/fwo/IDD60801/IDD60801.95101.axf

JavaScript Object Notation format (JSON) in row-major order
http://www.bom.gov.au/fwo/IDD60801/IDD60801.95101.json